Time;durP1;ratioP1;P1;durP2;ratioP2;P2;SDS_P1;SDS_P2;PMS_P1;PMS_P2;Temp;Humidity;BMP_temperature;BMP_pressure;BME280_temperature;BME280_humidity;BME280_pressure;Samples;Min_cycle;Max_cycle;Signal;HPM_P1;HPM_P2
2022/03/23 00:00:03;;;;;;;18.65;9.63;;;11.40;82.50;;;;;;4145561;28;20057;-65
2022/03/23 00:02:03;;;;;;;17.30;9.77;;;11.40;86.50;;;;;;4145039;28;20045;-66
2022/03/23 00:04:05;;;;;;;20.30;10.75;;;11.30;86.90;;;;;;4144923;28;20117;-66
2022/03/23 00:06:06;;;;;;;19.07;10.80;;;11.40;85.00;;;;;;4145953;28;20480;-66
2022/03/23 00:08:10;;;;;;;19.35;10.80;;;11.30;85.50;;;;;;4143407;28;20096;-66
2022/03/23 00:10:11;;;;;;;21.70;10.52;;;11.30;84.50;;;;;;4143049;28;20124;-67
2022/03/23 00:12:12;;;;;;;17.25;10.07;;;11.30;83.50;;;;;;4144269;28;20444;-65
2022/03/23 00:14:13;;;;;;;18.45;11.15;;;11.30;83.70;;;;;;4148655;28;20124;-65
2022/03/23 00:16:14;;;;;;;17.55;10.95;;;11.30;84.90;;;;;;4148743;28;20026;-66
2022/03/23 00:18:15;;;;;;;15.07;10.40;;;11.20;84.80;;;;;;4144997;28;20046;-66
2022/03/23 00:20:15;;;;;;;17.67;10.55;;;11.30;83.60;;;;;;4144927;28;20530;-67
2022/03/23 00:22:17;;;;;;;18.63;10.57;;;11.20;84.30;;;;;;4145989;28;20129;-66
2022/03/23 00:24:17;;;;;;;17.48;9.68;;;11.20;82.90;;;;;;4144903;28;20542;-66
2022/03/23 00:26:18;;;;;;;14.02;8.85;;;11.10;80.70;;;;;;4146135;28;20061;-66
2022/03/23 00:28:19;;;;;;;12.63;8.57;;;11.10;82.70;;;;;;4149454;28;20045;-66
2022/03/23 00:30:21;;;;;;;14.10;8.20;;;11.00;82.70;;;;;;4142710;28;20065;-66
2022/03/23 00:32:21;;;;;;;14.57;8.18;;;10.90;82.20;;;;;;4143999;28;20038;-66
2022/03/23 00:34:22;;;;;;;14.07;9.00;;;10.90;82.60;;;;;;4144556;28;20038;-66
2022/03/23 00:36:24;;;;;;;15.38;9.32;;;10.90;83.10;;;;;;4145237;28;20049;-66
2022/03/23 00:38:24;;;;;;;15.07;8.68;;;10.80;82.80;;;;;;4147828;28;20045;-66
2022/03/23 00:40:28;;;;;;;15.40;9.73;;;10.80;83.00;;;;;;4144242;28;20042;-66
2022/03/23 00:42:28;;;;;;;22.75;10.50;;;10.80;83.10;;;;;;4143181;28;20070;-65
2022/03/23 00:44:29;;;;;;;19.25;10.50;;;10.70;83.00;;;;;;4146391;28;20049;-66
2022/03/23 00:46:30;;;;;;;17.13;10.27;;;10.70;86.00;;;;;;4143983;28;20083;-66
2022/03/23 00:48:32;;;;;;;17.30;11.20;;;10.60;86.60;;;;;;4159994;28;20033;-66
2022/03/23 00:50:34;;;;;;;20.60;10.98;;;10.60;86.70;;;;;;4140631;28;20092;-65
2022/03/23 00:52:36;;;;;;;19.55;10.57;;;10.60;85.20;;;;;;4143913;28;20512;-66
2022/03/23 00:54:37;;;;;;;19.02;11.27;;;10.60;85.70;;;;;;4159630;28;20045;-66
2022/03/23 00:56:38;;;;;;;16.67;10.00;;;10.60;84.20;;;;;;4142160;28;20045;-66
2022/03/23 00:58:38;;;;;;;20.08;9.52;;;10.50;84.10;;;;;;4145437;28;20038;-66
2022/03/23 01:00:41;;;;;;;20.10;9.88;;;10.50;84.80;;;;;;4141754;28;20065;-66
2022/03/23 01:02:42;;;;;;;18.02;10.40;;;10.50;87.40;;;;;;4148318;28;20045;-66
2022/03/23 01:04:43;;;;;;;18.08;10.43;;;10.50;89.20;;;;;;4143302;28;20041;-66
2022/03/23 01:06:44;;;;;;;17.35;10.60;;;10.50;89.60;;;;;;4144803;28;20046;-66
2022/03/23 01:08:44;;;;;;;19.15;10.23;;;10.50;91.40;;;;;;4143276;28;20065;-66
2022/03/23 01:10:45;;;;;;;18.85;10.75;;;10.50;91.30;;;;;;4141390;28;20025;-66
2022/03/23 01:12:47;;;;;;;15.80;10.35;;;10.50;93.20;;;;;;4144931;28;20049;-66
2022/03/23 01:14:47;;;;;;;18.80;11.70;;;10.50;93.00;;;;;;4145276;28;20069;-66
2022/03/23 01:16:50;;;;;;;17.95;10.52;;;10.50;92.90;;;;;;4143609;28;20947;-66
2022/03/23 01:18:50;;;;;;;16.15;9.93;;;10.50;93.10;;;;;;4142342;28;20046;-66
2022/03/23 01:20:51;;;;;;;16.88;10.73;;;10.50;92.20;;;;;;4145816;28;20379;-66
2022/03/23 01:22:52;;;;;;;15.93;10.60;;;10.50;93.00;;;;;;4143722;28;20104;-65
2022/03/23 01:24:52;;;;;;;17.25;10.77;;;10.50;93.20;;;;;;4143508;28;20069;-66
2022/03/23 01:26:53;;;;;;;18.38;10.18;;;10.50;90.90;;;;;;4143544;28;20120;-66
2022/03/23 01:28:54;;;;;;;11.55;7.90;;;10.40;90.30;;;;;;4148813;28;20394;-65
2022/03/23 01:30:54;;;;;;;14.75;7.95;;;10.40;90.70;;;;;;4143930;28;20096;-66
2022/03/23 01:32:55;;;;;;;14.23;7.93;;;10.30;91.20;;;;;;4146228;28;20044;-65
2022/03/23 01:34:55;;;;;;;13.95;9.50;;;10.20;93.10;;;;;;4145300;28;20049;-66
2022/03/23 01:36:56;;;;;;;16.50;10.18;;;10.20;94.30;;;;;;4146900;28;20041;-66
2022/03/23 01:38:58;;;;;;;15.63;10.23;;;10.20;93.60;;;;;;4143686;28;20497;-66
2022/03/23 01:40:58;;;;;;;16.20;10.23;;;10.10;94.10;;;;;;4141221;28;20034;-66
2022/03/23 01:42:59;;;;;;;17.00;10.32;;;10.10;93.80;;;;;;4143959;28;20415;-65
2022/03/23 01:45:00;;;;;;;15.50;10.02;;;10.10;95.00;;;;;;4145306;28;20116;-65
2022/03/23 01:47:01;;;;;;;15.27;9.95;;;10.10;96.10;;;;;;4143493;28;20461;-65
2022/03/23 01:49:02;;;;;;;16.58;10.15;;;10.10;96.40;;;;;;4143352;28;20121;-66
2022/03/23 01:51:03;;;;;;;16.85;10.75;;;10.00;95.80;;;;;;4142704;28;20117;-66
2022/03/23 01:53:03;;;;;;;19.15;10.48;;;10.00;97.60;;;;;;4142435;28;20069;-66
2022/03/23 01:55:08;;;;;;;17.33;11.15;;;10.00;97.10;;;;;;4145270;28;20037;-67
2022/03/23 01:57:10;;;;;;;18.80;10.35;;;10.00;97.40;;;;;;4143283;28;20042;-66
2022/03/23 01:59:11;;;;;;;18.92;10.70;;;10.00;97.10;;;;;;4142501;28;20516;-66
2022/03/23 02:01:12;;;;;;;17.60;10.43;;;10.00;97.60;;;;;;4140378;28;20037;-65
2022/03/23 02:03:12;;;;;;;15.75;10.23;;;10.00;97.60;;;;;;4144799;28;20431;-65
2022/03/23 02:05:14;;;;;;;20.10;11.30;;;10.00;99.20;;;;;;4143076;28;20493;-67
2022/03/23 02:07:14;;;;;;;18.13;10.73;;;10.00;99.20;;;;;;4143033;28;20058;-66
2022/03/23 02:09:16;;;;;;;18.63;11.10;;;10.00;98.50;;;;;;4143324;28;20034;-66
2022/03/23 02:11:16;;;;;;;16.85;10.25;;;9.90;96.20;;;;;;4144246;28;20042;-66
2022/03/23 02:13:17;;;;;;;18.13;10.80;;;9.90;96.20;;;;;;4146897;28;20494;-66
2022/03/23 02:15:18;;;;;;;21.63;11.45;;;9.90;96.20;;;;;;4141470;28;20073;-66
2022/03/23 02:17:18;;;;;;;17.50;11.13;;;9.90;94.30;;;;;;4145545;28;20034;-66
2022/03/23 02:19:20;;;;;;;18.75;10.82;;;9.90;93.60;;;;;;4144055;28;20113;-66
2022/03/23 02:21:21;;;;;;;16.73;10.63;;;9.90;93.60;;;;;;4125118;28;20117;-66
2022/03/23 02:23:21;;;;;;;15.02;9.25;;;9.80;93.90;;;;;;4148123;28;20504;-66
2022/03/23 02:25:25;;;;;;;15.18;9.63;;;9.70;94.00;;;;;;4143015;28;20123;-66
2022/03/23 02:27:26;;;;;;;17.40;10.10;;;9.80;96.20;;;;;;4144076;28;20026;-66
2022/03/23 02:29:34;;;;;;;16.33;10.02;;;9.70;97.40;;;;;;4147358;28;20037;-66
2022/03/23 02:31:35;;;;;;;15.45;9.93;;;9.70;96.40;;;;;;4141816;28;20111;-66
2022/03/23 02:33:36;;;;;;;15.75;8.98;;;9.70;96.70;;;;;;4142627;28;20058;-66
2022/03/23 02:35:36;;;;;;;16.63;10.38;;;9.70;95.10;;;;;;4140690;28;20057;-66
2022/03/23 02:37:38;;;;;;;14.57;9.85;;;9.70;96.20;;;;;;4144236;28;20045;-66
2022/03/23 02:39:39;;;;;;;16.63;9.73;;;9.60;98.10;;;;;;4142145;28;20389;-66
2022/03/23 02:41:40;;;;;;;17.35;10.27;;;9.60;98.10;;;;;;4140987;28;20044;-66
2022/03/23 02:43:41;;;;;;;16.70;10.40;;;9.60;99.00;;;;;;4143656;28;20370;-66
2022/03/23 02:45:41;;;;;;;17.23;10.90;;;9.60;99.90;;;;;;4143054;28;20029;-65
2022/03/23 02:47:42;;;;;;;21.70;11.68;;;9.60;99.90;;;;;;4142706;28;20493;-65
2022/03/23 02:49:43;;;;;;;17.50;10.85;;;9.60;99.90;;;;;;4142212;28;20502;-66
2022/03/23 02:51:44;;;;;;;18.23;10.95;;;9.60;99.90;;;;;;4142172;28;20042;-66
2022/03/23 03:03:24;;;;;;;18.27;10.38;;;9.50;99.20;;;;;;4142405;28;20041;-66
2022/03/23 03:05:24;;;;;;;19.98;10.30;;;9.50;99.90;;;;;;4142350;28;20498;-66
2022/03/23 03:07:25;;;;;;;18.42;11.35;;;9.50;99.90;;;;;;4143961;28;20038;-65
2022/03/23 03:09:25;;;;;;;17.60;10.63;;;9.40;99.90;;;;;;4143259;28;20096;-66
2022/03/23 03:11:26;;;;;;;15.35;10.90;;;9.50;99.90;;;;;;4143276;28;20041;-65
2022/03/23 03:13:29;;;;;;;18.45;11.35;;;9.40;99.90;;;;;;4144009;28;20034;-66
2022/03/23 03:15:30;;;;;;;;;;;9.40;99.90;;;;;;4142141;28;20446;-66
2022/03/23 03:17:30;;;;;;;16.77;10.38;;;9.40;99.90;;;;;;4142276;28;19918;-66
2022/03/23 03:19:32;;;;;;;18.90;10.70;;;9.40;99.90;;;;;;4141972;28;20457;-65
2022/03/23 03:21:32;;;;;;;20.35;11.00;;;9.40;99.90;;;;;;4147106;28;20128;-66
2022/03/23 03:23:37;;;;;;;20.38;12.02;;;9.40;99.90;;;;;;4144915;28;20041;-65
2022/03/23 03:25:37;;;;;;;17.73;11.68;;;9.40;99.90;;;;;;4143931;28;20038;-65
2022/03/23 03:27:39;;;;;;;19.55;11.45;;;9.40;99.90;;;;;;4145444;28;20041;-66
2022/03/23 03:29:40;;;;;;;15.52;9.88;;;9.30;99.10;;;;;;4145568;28;20050;-66
2022/03/23 03:31:41;;;;;;;16.65;9.90;;;9.30;98.40;;;;;;4143500;28;20104;-66
2022/03/23 03:33:41;;;;;;;15.88;9.73;;;9.30;97.70;;;;;;4145887;28;20036;-65
2022/03/23 03:35:42;;;;;;;15.75;9.80;;;9.20;97.50;;;;;;4145774;28;20473;-66
2022/03/23 03:37:43;;;;;;;18.33;10.63;;;9.20;98.10;;;;;;4146309;28;20481;-66
2022/03/23 03:39:43;;;;;;;21.70;11.00;;;9.20;98.80;;;;;;4145132;28;20430;-65
2022/03/23 03:41:44;;;;;;;18.05;11.15;;;9.10;99.90;;;;;;4145892;28;20026;-65
2022/03/23 03:43:44;;;;;;;18.48;11.30;;;9.10;99.60;;;;;;4145107;28;20483;-66
2022/03/23 03:45:45;;;;;;;21.27;10.93;;;9.10;99.80;;;;;;4144720;28;20038;-66
2022/03/23 03:47:45;;;;;;;18.52;10.88;;;9.10;98.70;;;;;;4144781;28;20046;-66
2022/03/23 03:49:46;;;;;;;18.98;10.85;;;9.00;97.90;;;;;;4145728;28;20041;-66
2022/03/23 03:51:47;;;;;;;19.27;10.98;;;9.00;97.70;;;;;;4144409;28;20029;-65
2022/03/23 03:53:48;;;;;;;18.92;12.13;;;9.00;97.80;;;;;;4146442;28;20145;-66
2022/03/23 03:55:48;;;;;;;23.70;11.90;;;9.00;97.50;;;;;;4145721;28;20125;-66
2022/03/23 03:57:49;;;;;;;19.25;11.85;;;9.00;97.80;;;;;;4144419;28;20541;-66
2022/03/23 03:59:49;;;;;;;24.40;11.90;;;8.90;97.60;;;;;;4145477;28;20041;-66
2022/03/23 04:01:50;;;;;;;21.45;12.02;;;8.90;98.30;;;;;;4144184;28;20050;-66
2022/03/23 04:03:51;;;;;;;17.92;11.18;;;8.90;99.40;;;;;;4145549;28;20046;-66
2022/03/23 04:05:51;;;;;;;21.25;12.02;;;8.90;99.90;;;;;;4143606;28;20030;-65
2022/03/23 04:07:52;;;;;;;21.42;11.85;;;8.90;99.90;;;;;;4146719;28;20145;-66
2022/03/23 04:09:52;;;;;;;18.83;11.38;;;8.90;99.90;;;;;;4145440;28;20121;-66
2022/03/23 04:11:53;;;;;;;16.73;10.60;;;8.80;98.70;;;;;;4144344;28;20046;-65
2022/03/23 04:13:53;;;;;;;18.75;11.82;;;8.80;98.30;;;;;;4146039;28;20169;-66
2022/03/23 04:15:54;;;;;;;18.13;11.23;;;8.70;98.80;;;;;;4144469;28;20057;-66
2022/03/23 04:17:55;;;;;;;18.30;10.48;;;8.50;99.40;;;;;;4144265;28;20049;-66
2022/03/23 04:19:56;;;;;;;20.98;11.88;;;8.30;99.60;;;;;;4145368;28;20034;-66
2022/03/23 04:21:56;;;;;;;21.23;13.45;;;8.00;99.90;;;;;;4145148;28;20038;-66
2022/03/23 04:23:57;;;;;;;22.33;12.75;;;8.00;99.90;;;;;;4144989;28;20058;-66
2022/03/23 04:25:58;;;;;;;19.20;12.52;;;8.00;99.90;;;;;;4145636;28;20048;-66
2022/03/23 04:27:58;;;;;;;18.85;12.27;;;8.00;99.90;;;;;;4146020;28;20121;-66
2022/03/23 04:29:59;;;;;;;19.90;12.35;;;8.10;99.90;;;;;;4147871;28;20033;-66
2022/03/23 04:32:00;;;;;;;17.67;11.13;;;8.10;99.90;;;;;;4144169;28;20489;-66
2022/03/23 04:34:00;;;;;;;17.27;10.15;;;8.00;99.90;;;;;;4144891;28;20033;-65
2022/03/23 04:36:02;;;;;;;17.15;10.63;;;8.10;99.90;;;;;;4144383;28;20048;-66
2022/03/23 04:38:03;;;;;;;16.70;10.20;;;8.10;99.90;;;;;;4142953;28;20050;-65
2022/03/23 04:40:04;;;;;;;17.77;10.20;;;8.10;99.90;;;;;;4145397;28;20064;-67
2022/03/23 04:42:05;;;;;;;19.13;10.65;;;8.10;99.90;;;;;;4142953;28;20041;-65
2022/03/23 04:44:06;;;;;;;20.42;10.63;;;8.10;99.90;;;;;;4146009;28;20399;-65
2022/03/23 04:46:07;;;;;;;17.35;11.45;;;8.10;99.90;;;;;;4144269;28;20034;-65
2022/03/23 04:48:08;;;;;;;19.88;11.23;;;8.20;99.90;;;;;;4143784;28;20057;-65
2022/03/23 04:50:10;;;;;;;33.95;11.35;;;8.10;99.90;;;;;;4125225;28;20042;-66
2022/03/23 04:52:12;;;;;;;20.02;11.60;;;8.20;99.90;;;;;;4144232;28;20378;-66
2022/03/23 04:54:13;;;;;;;17.65;10.48;;;8.20;99.90;;;;;;4147694;28;20030;-65
2022/03/23 04:56:13;;;;;;;16.58;10.18;;;8.20;99.90;;;;;;4143618;28;20111;-65
2022/03/23 04:58:14;;;;;;;19.27;11.75;;;8.20;99.90;;;;;;4144762;28;20422;-66
2022/03/23 05:00:17;;;;;;;17.45;11.35;;;8.10;99.90;;;;;;4143366;28;20451;-66
2022/03/23 05:02:18;;;;;;;22.40;11.38;;;8.20;99.90;;;;;;4142467;28;20504;-66
2022/03/23 05:04:18;;;;;;;18.70;11.32;;;8.20;99.90;;;;;;4146041;28;20405;-65
2022/03/23 05:06:19;;;;;;;20.58;11.35;;;8.20;99.90;;;;;;4145867;28;20038;-66
2022/03/23 05:08:20;;;;;;;19.45;12.00;;;8.20;99.90;;;;;;4144290;28;20511;-65
2022/03/23 05:10:20;;;;;;;16.83;10.82;;;8.10;99.90;;;;;;4143236;28;20029;-66
2022/03/23 05:12:21;;;;;;;17.17;10.80;;;8.10;99.90;;;;;;4144100;28;20034;-65
2022/03/23 05:14:21;;;;;;;18.08;10.95;;;8.10;99.90;;;;;;4142166;28;20428;-66
2022/03/23 05:16:22;;;;;;;17.67;10.75;;;8.10;99.90;;;;;;4141260;28;20045;-65
2022/03/23 05:18:22;;;;;;;19.95;11.57;;;8.10;99.90;;;;;;4142748;28;20116;-66
2022/03/23 05:20:23;;;;;;;19.48;12.20;;;8.10;99.90;;;;;;4141759;28;20073;-66
2022/03/23 05:22:24;;;;;;;20.52;12.23;;;8.10;99.90;;;;;;4141573;28;20065;-65
2022/03/23 05:24:25;;;;;;;19.92;12.40;;;8.00;99.90;;;;;;4141746;28;20457;-66
2022/03/23 05:26:25;;;;;;;22.23;12.93;;;8.00;99.90;;;;;;4141958;28;20038;-66
2022/03/23 05:28:26;;;;;;;24.25;12.15;;;8.00;99.90;;;;;;4140795;28;20038;-66
2022/03/23 05:30:27;;;;;;;21.38;12.63;;;7.90;99.90;;;;;;4142331;28;20081;-65
2022/03/23 05:32:28;;;;;;;22.02;12.63;;;7.90;99.90;;;;;;4141963;28;20038;-65
2022/03/23 05:34:28;;;;;;;25.13;14.18;;;7.90;99.90;;;;;;4127572;28;20439;-65
2022/03/23 05:36:30;;;;;;;21.92;12.98;;;7.90;99.90;;;;;;4142631;28;20064;-66
2022/03/23 05:38:31;;;;;;;23.02;13.90;;;7.90;99.90;;;;;;4141172;28;20042;-65
2022/03/23 05:40:31;;;;;;;23.38;13.40;;;7.90;99.90;;;;;;4139985;28;20057;-65
2022/03/23 05:42:32;;;;;;;20.45;13.18;;;7.90;99.90;;;;;;4141899;28;20040;-66
2022/03/23 05:44:34;;;;;;;22.20;13.85;;;7.80;99.90;;;;;;4141578;28;20051;-65
2022/03/23 05:46:34;;;;;;;24.88;14.05;;;7.80;99.90;;;;;;4141021;28;20034;-67
2022/03/23 05:48:35;;;;;;;23.45;12.93;;;7.80;99.90;;;;;;4142588;28;20072;-65
2022/03/23 05:50:36;;;;;;;26.42;14.75;;;7.70;99.90;;;;;;4141625;28;20389;-65
2022/03/23 05:52:38;;;;;;;25.13;14.95;;;7.70;99.90;;;;;;4146825;28;20042;-65
2022/03/23 05:54:39;;;;;;;23.67;14.93;;;7.60;99.90;;;;;;4141119;28;20050;-65
2022/03/23 05:56:39;;;;;;;24.77;14.77;;;7.50;99.90;;;;;;4140269;28;20057;-65
2022/03/23 05:58:40;;;;;;;23.85;14.80;;;7.40;99.90;;;;;;4140562;28;20054;-65
2022/03/23 06:00:41;;;;;;;25.20;13.63;;;7.40;99.90;;;;;;4139577;28;20065;-65
2022/03/23 06:02:41;;;;;;;20.75;12.85;;;7.30;99.90;;;;;;4139968;28;20045;-65
2022/03/23 06:04:42;;;;;;;21.25;13.05;;;7.30;99.90;;;;;;4141662;28;20057;-65
2022/03/23 06:06:42;;;;;;;20.88;12.68;;;7.40;99.90;;;;;;4140668;28;20497;-66
2022/03/23 06:08:43;;;;;;;17.25;11.27;;;7.40;99.90;;;;;;4141161;28;20409;-65
2022/03/23 06:10:43;;;;;;;18.38;11.63;;;7.40;99.90;;;;;;4140526;28;20500;-65
2022/03/23 06:12:44;;;;;;;19.58;11.65;;;7.40;99.90;;;;;;4139826;28;20065;-66
2022/03/23 06:14:46;;;;;;;24.85;12.63;;;7.30;99.90;;;;;;4142026;28;20041;-65
2022/03/23 06:16:47;;;;;;;18.63;11.90;;;7.30;99.90;;;;;;4146358;28;20121;-66
2022/03/23 06:18:48;;;;;;;19.60;11.77;;;7.30;99.90;;;;;;4142887;28;20529;-65
2022/03/23 06:20:48;;;;;;;22.92;12.60;;;7.20;99.90;;;;;;4141932;28;20048;-65
2022/03/23 06:22:49;;;;;;;21.17;13.25;;;7.10;99.90;;;;;;4141061;28;20528;-65
2022/03/23 06:24:50;;;;;;;23.35;13.18;;;7.00;99.90;;;;;;4142715;28;20106;-65
2022/03/23 06:26:51;;;;;;;26.65;14.38;;;6.80;99.90;;;;;;4140455;28;20080;-66
2022/03/23 06:28:51;;;;;;;22.60;14.45;;;6.70;99.90;;;;;;4140184;28;20041;-66
2022/03/23 06:30:52;;;;;;;26.42;14.02;;;6.60;99.90;;;;;;4140160;28;20057;-66
2022/03/23 06:32:53;;;;;;;23.73;14.27;;;6.50;99.90;;;;;;4143110;28;20034;-66
2022/03/23 06:34:53;;;;;;;22.55;13.27;;;6.50;99.90;;;;;;4141654;28;20482;-65
2022/03/23 06:36:54;;;;;;;27.88;14.35;;;6.60;99.90;;;;;;4139832;28;20042;-65
2022/03/23 06:38:55;;;;;;;26.27;14.60;;;6.70;99.90;;;;;;4142955;28;20379;-66
2022/03/23 06:40:56;;;;;;;22.42;13.73;;;6.80;99.90;;;;;;4143684;28;20046;-66
2022/03/23 06:42:56;;;;;;;22.83;13.85;;;6.90;99.90;;;;;;4141691;28;20042;-66
2022/03/23 06:44:57;;;;;;;24.08;13.85;;;7.10;99.90;;;;;;4143918;28;20034;-66
2022/03/23 06:46:57;;;;;;;25.42;13.80;;;7.30;99.90;;;;;;4141808;28;20049;-66
2022/03/23 06:48:58;;;;;;;22.98;13.23;;;7.50;99.90;;;;;;4124964;28;20057;-66
2022/03/23 06:50:59;;;;;;;25.45;13.55;;;7.70;99.90;;;;;;4141596;28;20095;-66
2022/03/23 06:53:00;;;;;;;20.27;12.90;;;8.00;99.90;;;;;;4139719;28;20041;-66
2022/03/23 06:55:01;;;;;;;22.60;13.85;;;8.30;99.90;;;;;;4139324;28;20111;-66
2022/03/23 06:57:02;;;;;;;22.42;14.02;;;8.60;99.90;;;;;;4144018;28;20037;-66
2022/03/23 06:59:04;;;;;;;24.08;13.32;;;8.90;99.90;;;;;;4143901;28;20068;-66
2022/03/23 07:01:04;;;;;;;23.38;14.18;;;9.20;99.90;;;;;;4142039;28;20502;-66
2022/03/23 07:03:05;;;;;;;23.63;15.68;;;9.50;99.90;;;;;;4144249;28;20057;-65
2022/03/23 07:05:06;;;;;;;24.13;15.02;;;9.80;99.90;;;;;;4143679;28;20164;-68
2022/03/23 07:07:06;;;;;;;22.30;14.75;;;10.00;99.90;;;;;;4144310;28;20498;-65
2022/03/23 07:11:27;;;;;;;25.92;15.23;;;10.60;99.90;;;;;;4142596;28;20462;-66
2022/03/23 07:13:28;;;;;;;25.25;14.75;;;11.00;99.90;;;;;;4144035;28;20034;-66
2022/03/23 07:15:29;;;;;;;26.10;16.25;;;11.30;99.90;;;;;;4141897;28;20046;-66
2022/03/23 07:17:33;;;;;;;25.75;15.50;;;11.60;99.90;;;;;;4125093;28;20071;-66
2022/03/23 07:19:33;;;;;;;20.63;14.30;;;11.90;99.90;;;;;;4142835;28;20077;-66
2022/03/23 07:21:34;;;;;;;21.73;14.05;;;12.10;99.90;;;;;;4143218;28;20042;-66
2022/03/23 07:23:35;;;;;;;19.27;12.82;;;12.40;99.90;;;;;;4142264;28;20069;-65
2022/03/23 07:25:35;;;;;;;22.80;14.38;;;12.60;99.90;;;;;;4141216;28;20062;-65
2022/03/23 07:27:36;;;;;;;24.67;14.75;;;12.80;99.90;;;;;;4142751;28;20053;-66
2022/03/23 07:29:37;;;;;;;23.52;14.85;;;13.00;99.90;;;;;;4142523;28;20041;-66
2022/03/23 07:31:37;;;;;;;25.42;15.30;;;13.20;99.90;;;;;;4141719;28;20050;-67
2022/03/23 07:33:38;;;;;;;23.58;14.05;;;13.40;99.90;;;;;;4142000;28;20046;-66
2022/03/23 07:35:39;;;;;;;23.90;14.45;;;13.70;99.90;;;;;;4142138;28;20053;-67
2022/03/23 07:37:39;;;;;;;22.08;13.93;;;13.90;99.90;;;;;;4143352;28;20041;-66
2022/03/23 07:39:40;;;;;;;23.77;14.73;;;14.10;99.90;;;;;;4142418;28;20050;-67
2022/03/23 07:41:41;;;;;;;22.77;15.45;;;14.40;98.00;;;;;;4140980;28;20049;-66
2022/03/23 07:43:41;;;;;;;28.75;15.65;;;14.60;97.80;;;;;;4142303;28;20524;-67
2022/03/23 07:45:42;;;;;;;22.25;14.32;;;14.90;98.50;;;;;;4142130;28;20058;-67
2022/03/23 07:47:44;;;;;;;22.10;14.13;;;15.10;97.60;;;;;;4141156;28;20504;-67
2022/03/23 07:49:44;;;;;;;25.60;14.23;;;15.40;92.80;;;;;;4142450;28;20116;-67
2022/03/23 07:51:45;;;;;;;20.20;12.23;;;15.50;84.30;;;;;;4141760;28;20061;-66
2022/03/23 07:53:45;;;;;;;22.00;12.82;;;15.70;85.90;;;;;;4142644;28;20046;-66
2022/03/23 07:55:46;;;;;;;20.00;12.65;;;15.80;77.10;;;;;;4141800;28;20470;-66
2022/03/23 07:57:46;;;;;;;21.20;12.73;;;16.10;81.50;;;;;;4125072;28;20493;-67
2022/03/23 07:59:47;;;;;;;19.05;10.98;;;16.20;74.90;;;;;;4141586;28;20049;-66
2022/03/23 08:01:48;;;;;;;18.80;11.65;;;16.50;82.60;;;;;;4141162;28;20370;-67
2022/03/23 08:03:48;;;;;;;20.75;12.88;;;16.60;75.20;;;;;;4143860;28;20034;-67
2022/03/23 08:05:49;;;;;;;23.17;13.40;;;16.50;70.60;;;;;;4139041;28;20060;-66
2022/03/23 08:07:50;;;;;;;22.33;12.57;;;16.50;72.80;;;;;;4141144;28;20044;-68
2022/03/23 08:09:50;;;;;;;19.52;11.70;;;16.50;72.50;;;;;;4141229;28;20458;-67
2022/03/23 08:11:51;;;;;;;17.48;11.57;;;16.30;71.40;;;;;;4140898;28;20038;-67
2022/03/23 08:13:52;;;;;;;23.33;12.93;;;16.30;71.60;;;;;;4122326;28;20026;-67
2022/03/23 08:15:52;;;;;;;21.15;13.57;;;16.20;69.90;;;;;;4139960;28;20099;-67
2022/03/23 08:17:53;;;;;;;21.55;11.73;;;16.20;69.90;;;;;;4141210;28;20387;-67
2022/03/23 08:22:12;;;;;;;19.50;13.03;;;16.40;74.90;;;;;;4101051;28;1064953;-67
2022/03/23 08:24:13;;;;;;;24.20;12.75;;;16.40;75.20;;;;;;4143229;28;20108;-67
2022/03/23 08:26:14;;;;;;;22.02;12.18;;;16.30;76.50;;;;;;4141745;28;20052;-67
2022/03/23 08:28:15;;;;;;;19.95;12.02;;;16.40;72.10;;;;;;4142895;28;20060;-65
2022/03/23 08:30:16;;;;;;;20.23;12.48;;;16.50;75.70;;;;;;4143742;28;20050;-67
2022/03/23 08:32:16;;;;;;;17.70;12.35;;;16.50;74.40;;;;;;4142981;28;20500;-66
2022/03/23 08:34:17;;;;;;;20.00;11.65;;;16.50;74.40;;;;;;4143475;28;20066;-67
2022/03/23 08:36:17;;;;;;;22.73;13.20;;;16.50;74.50;;;;;;4142167;28;20497;-67
2022/03/23 08:38:18;;;;;;;24.02;13.52;;;16.50;74.70;;;;;;4143550;28;20054;-66
2022/03/23 08:40:19;;;;;;;18.65;12.57;;;16.50;73.60;;;;;;4142143;28;20040;-67
2022/03/23 08:42:19;;;;;;;17.42;11.73;;;16.50;72.30;;;;;;4142899;28;20041;-67
2022/03/23 08:44:20;;;;;;;19.83;12.68;;;16.60;78.60;;;;;;4143303;28;20049;-66
2022/03/23 08:46:21;;;;;;;19.13;12.40;;;16.70;74.00;;;;;;4143183;28;20093;-67
2022/03/23 08:48:22;;;;;;;20.48;12.23;;;16.80;76.40;;;;;;4142466;28;20450;-67
2022/03/23 08:50:22;;;;;;;18.73;12.18;;;16.90;77.00;;;;;;4142331;28;20045;-67
2022/03/23 08:52:24;;;;;;;18.58;11.85;;;16.80;72.80;;;;;;4138219;28;20038;-66
2022/03/23 08:54:25;;;;;;;18.87;11.93;;;17.00;74.20;;;;;;4143787;28;20093;-67
2022/03/23 08:56:26;;;;;;;20.40;11.13;;;17.00;73.10;;;;;;4142528;28;20257;-67
2022/03/23 08:58:26;;;;;;;18.88;12.20;;;17.00;76.30;;;;;;4143251;28;20037;-67
2022/03/23 09:00:27;;;;;;;18.40;11.50;;;17.10;76.70;;;;;;4144064;28;20041;-66
2022/03/23 09:02:28;;;;;;;18.25;11.45;;;17.10;73.90;;;;;;4142988;28;20058;-68
2022/03/23 09:04:28;;;;;;;19.77;12.65;;;17.20;76.60;;;;;;4143556;28;20103;-67
2022/03/23 09:06:29;;;;;;;21.73;13.15;;;17.30;77.30;;;;;;4142445;28;20062;-67
2022/03/23 09:08:30;;;;;;;16.60;11.93;;;17.30;74.20;;;;;;4143515;28;20071;-67
2022/03/23 09:10:31;;;;;;;20.67;12.68;;;17.40;73.50;;;;;;4142751;28;20049;-67
2022/03/23 09:12:32;;;;;;;19.52;12.20;;;17.40;75.10;;;;;;4143563;28;20037;-67
2022/03/23 09:14:33;;;;;;;16.77;11.65;;;17.50;71.90;;;;;;4142406;28;20450;-67
2022/03/23 09:16:34;;;;;;;24.10;13.55;;;17.50;71.90;;;;;;4141659;28;20046;-67
2022/03/23 09:18:34;;;;;;;22.58;13.80;;;17.50;69.60;;;;;;4141656;28;20049;-67
2022/03/23 09:20:35;;;;;;;21.60;13.88;;;17.60;72.10;;;;;;4143370;28;20038;-66
2022/03/23 09:22:35;;;;;;;24.27;14.07;;;17.70;75.10;;;;;;4141793;28;20128;-67
2022/03/23 09:24:36;;;;;;;22.52;14.32;;;17.70;73.60;;;;;;4142761;28;20137;-67
2022/03/23 09:26:38;;;;;;;23.92;13.32;;;17.70;71.20;;;;;;4139890;28;20129;-67
2022/03/23 09:28:39;;;;;;;23.95;13.32;;;17.80;72.60;;;;;;4142657;28;20038;-67
2022/03/23 09:30:40;;;;;;;25.30;14.05;;;17.90;72.40;;;;;;4140958;28;20088;-67
2022/03/23 09:32:46;;;;;;;21.02;13.52;;;17.90;74.50;;;;;;4143155;28;20042;-67
2022/03/23 09:34:46;;;;;;;18.10;12.20;;;18.00;75.00;;;;;;4140955;28;20038;-66
2022/03/23 09:39:06;;;;;;;19.67;13.30;;;18.10;74.70;;;;;;4141881;28;20046;-67
2022/03/23 09:41:07;;;;;;;22.20;14.35;;;18.20;71.80;;;;;;4142660;28;20121;-67
2022/03/23 09:43:09;;;;;;;21.25;13.35;;;18.20;73.40;;;;;;4142065;28;20046;-67
2022/03/23 09:45:20;;;;;;;25.33;14.65;;;18.20;72.30;;;;;;4141745;28;20125;-67
2022/03/23 09:47:21;;;;;;;23.17;14.63;;;18.20;70.80;;;;;;4123406;28;20121;-66
2022/03/23 09:49:23;;;;;;;26.58;16.60;;;18.30;72.70;;;;;;4142886;28;20046;-67
2022/03/23 09:51:24;;;;;;;23.23;14.80;;;18.30;70.90;;;;;;4140780;28;20033;-66
2022/03/23 09:53:25;;;;;;;24.67;15.40;;;18.30;67.20;;;;;;4142697;28;20515;-66
2022/03/23 09:55:26;;;;;;;24.23;15.25;;;18.40;68.80;;;;;;4142926;28;20069;-66
2022/03/23 09:57:26;;;;;;;21.92;14.48;;;18.40;68.10;;;;;;4145928;28;20130;-66
2022/03/23 09:59:27;;;;;;;19.98;13.75;;;18.40;68.30;;;;;;4141188;28;20104;-67
2022/03/23 10:01:34;;;;;;;25.05;15.90;;;18.50;68.40;;;;;;4141725;28;20065;-67
2022/03/23 10:04:05;;;;;;;26.65;17.42;;;18.40;63.80;;;;;;4145011;28;20430;-68
2022/03/23 10:06:44;;;;;;;25.00;15.18;;;18.40;61.30;;;;;;4156463;28;20029;-67
2022/03/23 10:09:17;;;;;;;23.95;15.15;;;18.40;65.30;;;;;;4111886;28;20375;-67
2022/03/23 10:12:02;;;;;;;22.48;14.90;;;18.40;62.40;;;;;;4142967;28;20057;-66
2022/03/23 10:14:40;;;;;;;24.63;15.60;;;18.50;64.50;;;;;;4141742;28;20473;-67
2022/03/23 10:17:03;;;;;;;20.90;15.23;;;18.50;64.20;;;;;;4139833;28;20122;-67
2022/03/23 10:19:04;;;;;;;21.70;14.25;;;18.60;67.30;;;;;;4141942;28;20042;-67
2022/03/23 10:21:07;;;;;;;23.23;15.18;;;18.60;66.00;;;;;;4131899;28;20042;-67
2022/03/23 10:23:08;;;;;;;23.52;14.85;;;18.70;66.90;;;;;;4145202;28;20096;-67
2022/03/23 10:25:09;;;;;;;23.52;15.27;;;18.70;69.00;;;;;;4141696;28;20034;-68
2022/03/23 10:27:15;;;;;;;23.02;14.95;;;18.80;69.00;;;;;;4141451;28;20088;-67
2022/03/23 10:29:22;;;;;;;21.95;14.93;;;18.90;67.60;;;;;;4153952;28;20057;-67
2022/03/23 10:31:25;;;;;;;22.90;15.00;;;18.90;68.30;;;;;;4141510;28;20054;-67
2022/03/23 10:33:25;;;;;;;23.00;15.23;;;18.90;61.90;;;;;;4141125;28;20037;-67
2022/03/23 10:35:38;;;;;;;24.10;15.40;;;18.90;65.80;;;;;;4141956;28;20501;-67
2022/03/23 10:37:39;;;;;;;;;;;19.00;68.80;;;;;;4141613;28;20057;-68